Time;durP1;ratioP1;P1;durP2;ratioP2;P2;SDS_P1;SDS_P2;PMS_P1;PMS_P2;Temp;Humidity;BMP_temperature;BMP_pressure;BME280_temperature;BME280_humidity;BME280_pressure;Samples;Min_cycle;Max_cycle;Signal;HPM_P1;HPM_P2
2022/08/09 00:01:47;;;;;;;5.28;4.13;;;;;;;;;;5037077;28;20083;-87
2022/08/09 00:04:22;;;;;;;4.90;3.70;;;;;;;;;;5037342;28;20036;-88
2022/08/09 00:06:48;;;;;;;5.53;3.83;;;;;;;;;;5041148;28;20047;-88
2022/08/09 00:09:16;;;;;;;6.05;3.70;;;;;;;;;;5026445;28;20083;-88
2022/08/09 00:11:44;;;;;;;5.20;3.40;;;;;;;;;;5037172;28;20510;-88
2022/08/09 00:14:10;;;;;;;5.28;3.55;;;;;;;;;;5037398;28;20025;-87
2022/08/09 00:16:38;;;;;;;6.05;4.03;;;;;;;;;;5041675;28;20044;-87
2022/08/09 00:19:05;;;;;;;5.90;4.25;;;;;;;;;;5050489;28;20025;-88
2022/08/09 00:21:31;;;;;;;6.40;4.40;;;;;;;;;;5023982;28;20407;-88
2022/08/09 00:23:57;;;;;;;6.43;4.00;;;;;;;;;;5023337;28;20028;-88
2022/08/09 00:26:24;;;;;;;5.65;3.90;;;;;;;;;;5023177;28;20446;-87
2022/08/09 00:28:50;;;;;;;6.35;4.05;;;;;;;;;;5034017;28;20029;-88
2022/08/09 00:31:16;;;;;;;6.32;4.35;;;;;;;;;;5040344;28;20096;-88
2022/08/09 00:33:42;;;;;;;6.13;3.90;;;;;;;;;;5059918;28;20020;-87
2022/08/09 00:36:10;;;;;;;7.57;4.40;;;;;;;;;;5060630;28;20017;-88
2022/08/09 00:38:36;;;;;;;6.88;4.28;;;;;;;;;;5045251;28;20036;-88
2022/08/09 00:41:02;;;;;;;5.53;4.28;;;;;;;;;;5027160;28;20120;-88
2022/08/09 00:43:30;;;;;;;6.25;4.50;;;;;;;;;;5036876;28;20060;-87
2022/08/09 00:45:56;;;;;;;5.43;4.22;;;;;;;;;;5040423;28;20029;-87
2022/08/09 00:48:22;;;;;;;5.75;4.00;;;;;;;;;;5037607;28;20032;-88
2022/08/09 00:50:48;;;;;;;5.88;3.80;;;;;;;;;;5037852;28;20028;-87
2022/08/09 00:53:15;;;;;;;6.53;4.53;;;;;;;;;;5037173;28;20487;-88
2022/08/09 00:55:41;;;;;;;6.63;3.90;;;;;;;;;;5037404;28;20029;-87
2022/08/09 00:58:07;;;;;;;5.30;3.72;;;;;;;;;;5035610;28;20025;-88
2022/08/09 01:00:34;;;;;;;6.30;4.47;;;;;;;;;;5032124;28;20021;-87
2022/08/09 01:03:06;;;;;;;6.05;4.28;;;;;;;;;;5038526;28;20036;-88
2022/08/09 01:05:35;;;;;;;6.63;4.05;;;;;;;;;;5042072;28;20036;-87
2022/08/09 01:08:01;;;;;;;5.70;3.85;;;;;;;;;;5056994;28;20069;-87
2022/08/09 01:10:30;;;;;;;6.32;4.32;;;;;;;;;;5056990;28;20021;-87
2022/08/09 01:13:03;;;;;;;6.18;3.78;;;;;;;;;;5038771;28;20021;-87
2022/08/09 01:15:30;;;;;;;6.35;3.90;;;;;;;;;;5038181;28;20429;-88
2022/08/09 01:18:07;;;;;;;6.57;4.28;;;;;;;;;;5038174;28;20033;-87
2022/08/09 01:20:45;;;;;;;6.30;4.53;;;;;;;;;;5040389;28;20032;-86
2022/08/09 01:23:11;;;;;;;6.00;4.30;;;;;;;;;;5041398;28;20036;-87
2022/08/09 01:25:40;;;;;;;5.85;3.90;;;;;;;;;;5038152;28;20028;-88
2022/08/09 01:28:06;;;;;;;5.40;4.00;;;;;;;;;;5038915;28;20044;-88
2022/08/09 01:30:33;;;;;;;5.78;3.88;;;;;;;;;;5051368;28;20022;-88
2022/08/09 01:33:01;;;;;;;7.35;4.22;;;;;;;;;;5036335;28;20507;-87
2022/08/09 01:35:46;;;;;;;6.57;3.88;;;;;;;;;;5038000;28;20505;-87
2022/08/09 01:38:18;;;;;;;5.40;4.10;;;;;;;;;;5038355;28;20033;-87
2022/08/09 01:40:46;;;;;;;7.35;4.18;;;;;;;;;;5044625;28;20069;-88
2022/08/09 01:43:13;;;;;;;6.50;4.20;;;;;;;;;;5039941;28;20434;-88
2022/08/09 01:45:40;;;;;;;5.80;3.65;;;;;;;;;;5059876;28;20021;-87
2022/08/09 01:48:08;;;;;;;5.60;3.83;;;;;;;;;;5041084;28;20041;-88
2022/08/09 01:50:34;;;;;;;5.60;4.00;;;;;;;;;;5041176;28;20048;-88
2022/08/09 01:53:01;;;;;;;7.20;4.97;;;;;;;;;;5040719;28;20032;-88
2022/08/09 01:55:28;;;;;;;5.32;4.10;;;;;;;;;;5043188;28;20047;-88
2022/08/09 01:57:55;;;;;;;6.72;4.70;;;;;;;;;;5042479;28;20063;-88
2022/08/09 02:00:21;;;;;;;5.90;4.32;;;;;;;;;;5043107;28;20096;-88
2022/08/09 02:02:49;;;;;;;6.45;4.75;;;;;;;;;;5045264;28;20028;-88
2022/08/09 02:05:17;;;;;;;8.40;4.60;;;;;;;;;;5066377;28;20031;-88
2022/08/09 02:07:46;;;;;;;6.40;4.40;;;;;;;;;;5047087;28;20021;-88
2022/08/09 02:10:32;;;;;;;5.50;4.22;;;;;;;;;;5067147;28;20025;-88
2022/08/09 02:13:00;;;;;;;5.63;4.20;;;;;;;;;;5049078;28;20025;-88
2022/08/09 02:15:26;;;;;;;5.88;4.10;;;;;;;;;;5049794;28;20032;-87
2022/08/09 02:17:53;;;;;;;6.88;4.03;;;;;;;;;;5065700;28;20025;-88
2022/08/09 02:20:20;;;;;;;5.95;4.53;;;;;;;;;;5060102;28;20094;-88
2022/08/09 02:22:59;;;;;;;5.97;4.05;;;;;;;;;;5042303;28;20036;-88
2022/08/09 02:25:28;;;;;;;6.55;3.92;;;;;;;;;;5058916;28;20049;-87
2022/08/09 02:27:57;;;;;;;6.55;4.47;;;;;;;;;;5041033;28;20047;-87
2022/08/09 02:30:23;;;;;;;6.38;3.97;;;;;;;;;;5059706;28;20025;-87
2022/08/09 02:32:49;;;;;;;6.15;4.05;;;;;;;;;;5029430;28;20034;-88
2022/08/09 02:35:22;;;;;;;7.00;3.80;;;;;;;;;;5038930;28;20025;-88
2022/08/09 02:37:52;;;;;;;7.13;5.00;;;;;;;;;;5047823;28;20029;-86
2022/08/09 02:40:19;;;;;;;5.63;4.18;;;;;;;;;;5038357;28;20156;-87
2022/08/09 02:42:47;;;;;;;8.77;4.50;;;;;;;;;;5041354;28;20040;-85
2022/08/09 02:45:16;;;;;;;6.40;4.45;;;;;;;;;;5039460;28;20475;-86
2022/08/09 02:47:43;;;;;;;5.10;4.03;;;;;;;;;;5041285;28;20021;-87
2022/08/09 02:50:11;;;;;;;5.63;3.97;;;;;;;;;;5037431;28;20033;-86
2022/08/09 02:52:39;;;;;;;5.95;4.30;;;;;;;;;;5045545;28;20029;-87
2022/08/09 02:55:06;;;;;;;6.63;3.85;;;;;;;;;;5050711;28;20029;-87
2022/08/09 02:57:32;;;;;;;5.95;4.15;;;;;;;;;;5063548;28;20025;-87
2022/08/09 02:59:59;;;;;;;6.75;4.47;;;;;;;;;;5065735;28;20071;-87
2022/08/09 03:02:25;;;;;;;8.70;4.78;;;;;;;;;;5046216;28;20029;-87
2022/08/09 03:04:52;;;;;;;5.95;4.22;;;;;;;;;;5055902;28;20031;-88
2022/08/09 03:07:19;;;;;;;5.63;4.07;;;;;;;;;;5057241;28;20021;-89
2022/08/09 03:09:46;;;;;;;6.18;4.32;;;;;;;;;;5039368;28;20025;-88
2022/08/09 03:12:12;;;;;;;5.93;4.00;;;;;;;;;;5039757;28;20013;-88
2022/08/09 03:14:42;;;;;;;5.57;4.18;;;;;;;;;;5056688;28;20021;-88
2022/08/09 03:17:09;;;;;;;5.82;3.92;;;;;;;;;;5039248;28;20111;-87
2022/08/09 03:19:36;;;;;;;6.70;3.92;;;;;;;;;;5038822;28;20098;-88
2022/08/09 03:22:02;;;;;;;6.65;4.32;;;;;;;;;;5035216;28;20037;-88
2022/08/09 03:24:28;;;;;;;6.15;4.10;;;;;;;;;;5030661;28;20111;-88
2022/08/09 03:26:55;;;;;;;6.95;3.70;;;;;;;;;;5034993;28;20037;-87
2022/08/09 03:29:21;;;;;;;6.18;4.38;;;;;;;;;;5035983;28;20475;-88
2022/08/09 03:31:48;;;;;;;6.40;3.97;;;;;;;;;;5035404;28;20040;-88
2022/08/09 03:34:14;;;;;;;6.22;4.15;;;;;;;;;;5040465;28;20470;-88
2022/08/09 03:36:40;;;;;;;6.43;4.28;;;;;;;;;;5054864;28;20395;-88
2022/08/09 03:39:06;;;;;;;6.45;4.03;;;;;;;;;;5050897;28;20045;-88
2022/08/09 03:41:33;;;;;;;6.00;3.95;;;;;;;;;;5034807;28;20029;-88
2022/08/09 03:43:59;;;;;;;5.95;4.20;;;;;;;;;;5030953;28;20049;-88
2022/08/09 03:46:25;;;;;;;6.05;4.10;;;;;;;;;;5031682;28;20392;-88
2022/08/09 03:48:57;;;;;;;6.22;3.78;;;;;;;;;;5015864;28;20036;-88
2022/08/09 03:51:25;;;;;;;6.10;4.03;;;;;;;;;;5043685;28;20075;-89
2022/08/09 03:53:51;;;;;;;6.57;4.13;;;;;;;;;;5021247;28;20084;-87
2022/08/09 03:56:17;;;;;;;7.57;3.78;;;;;;;;;;5035026;28;20438;-86
2022/08/09 03:58:43;;;;;;;6.93;3.75;;;;;;;;;;5035034;28;20017;-87
2022/08/09 04:01:10;;;;;;;5.75;4.20;;;;;;;;;;5036083;28;20365;-87
2022/08/09 04:03:37;;;;;;;5.88;4.18;;;;;;;;;;5037558;28;20388;-87
2022/08/09 04:06:04;;;;;;;6.90;4.57;;;;;;;;;;5018399;28;20053;-87
2022/08/09 04:08:30;;;;;;;6.82;4.18;;;;;;;;;;5016253;28;20026;-86
2022/08/09 04:10:56;;;;;;;6.05;4.05;;;;;;;;;;5020601;28;20054;-89
2022/08/09 04:13:22;;;;;;;7.05;4.35;;;;;;;;;;5016013;28;20790;-88
2022/08/09 04:15:48;;;;;;;5.65;4.18;;;;;;;;;;5019161;28;20037;-88
2022/08/09 04:18:14;;;;;;;5.57;3.95;;;;;;;;;;5035293;28;20026;-88
2022/08/09 04:20:40;;;;;;;6.38;4.15;;;;;;;;;;5034799;28;20021;-88
2022/08/09 04:23:07;;;;;;;7.10;4.10;;;;;;;;;;5036807;28;20029;-87
2022/08/09 04:25:33;;;;;;;5.75;4.10;;;;;;;;;;5036445;28;20522;-88
2022/08/09 04:27:59;;;;;;;6.25;4.35;;;;;;;;;;5036221;28;20029;-87
2022/08/09 04:30:25;;;;;;;6.60;4.22;;;;;;;;;;5038649;28;20031;-87
2022/08/09 04:32:51;;;;;;;6.43;3.90;;;;;;;;;;5035122;28;20018;-88
2022/08/09 04:35:17;;;;;;;7.65;4.75;;;;;;;;;;5035604;28;20067;-88
2022/08/09 04:37:44;;;;;;;6.45;4.05;;;;;;;;;;5035689;28;20037;-88
2022/08/09 04:40:10;;;;;;;6.13;4.05;;;;;;;;;;5033927;28;20045;-88
2022/08/09 04:42:37;;;;;;;6.28;3.97;;;;;;;;;;5035706;28;20112;-88
2022/08/09 04:45:03;;;;;;;5.68;4.00;;;;;;;;;;5035601;28;20021;-88
2022/08/09 04:47:29;;;;;;;5.93;3.97;;;;;;;;;;5022408;28;20583;-88
2022/08/09 04:49:55;;;;;;;6.57;4.13;;;;;;;;;;5034145;28;20097;-88
2022/08/09 04:52:23;;;;;;;6.40;3.78;;;;;;;;;;5036361;28;20022;-88
2022/08/09 04:54:52;;;;;;;5.40;3.30;;;;;;;;;;5034622;28;20022;-89
2022/08/09 04:57:19;;;;;;;5.93;3.47;;;;;;;;;;5033416;28;20026;-88
2022/08/09 04:59:45;;;;;;;6.40;3.63;;;;;;;;;;5033336;28;20029;-86
2022/08/09 05:02:11;;;;;;;6.82;4.00;;;;;;;;;;5036602;28;20026;-87
2022/08/09 05:04:37;;;;;;;5.88;4.10;;;;;;;;;;5034664;28;20056;-89
2022/08/09 05:07:03;;;;;;;6.75;3.75;;;;;;;;;;5033497;28;20029;-88
2022/08/09 05:09:30;;;;;;;6.57;4.00;;;;;;;;;;5032096;28;20022;-88
2022/08/09 05:11:56;;;;;;;7.65;4.28;;;;;;;;;;5035196;28;20083;-88
2022/08/09 05:14:22;;;;;;;7.05;3.85;;;;;;;;;;5037744;28;20026;-86
2022/08/09 05:16:48;;;;;;;5.40;3.55;;;;;;;;;;5033989;28;20464;-88
2022/08/09 05:19:20;;;;;;;5.05;3.10;;;;;;;;;;5035915;28;20036;-88
2022/08/09 05:21:47;;;;;;;6.85;4.20;;;;;;;;;;5035929;28;20021;-89
2022/08/09 05:24:13;;;;;;;9.45;4.30;;;;;;;;;;5035137;28;20053;-87
2022/08/09 05:26:39;;;;;;;5.80;3.65;;;;;;;;;;5037562;28;20075;-88
2022/08/09 05:29:05;;;;;;;7.00;3.45;;;;;;;;;;5034963;28;20103;-88
2022/08/09 05:31:32;;;;;;;6.28;3.90;;;;;;;;;;5033685;28;20080;-88
2022/08/09 05:33:58;;;;;;;6.00;3.72;;;;;;;;;;5034544;28;20018;-89
2022/08/09 05:36:24;;;;;;;5.95;3.65;;;;;;;;;;5029532;28;20052;-89
2022/08/09 05:38:50;;;;;;;5.28;3.45;;;;;;;;;;5031912;28;20034;-89
2022/08/09 05:41:16;;;;;;;6.00;3.50;;;;;;;;;;5017059;28;20135;-89
2022/08/09 05:43:42;;;;;;;6.18;3.72;;;;;;;;;;5016951;28;20088;-88
2022/08/09 05:46:10;;;;;;;7.57;3.40;;;;;;;;;;5039005;28;20021;-89
2022/08/09 05:48:36;;;;;;;4.95;3.33;;;;;;;;;;5056735;28;20021;-88
2022/08/09 05:51:02;;;;;;;4.70;3.13;;;;;;;;;;5039134;28;20067;-89
2022/08/09 05:53:28;;;;;;;10.13;3.45;;;;;;;;;;5056089;28;20021;-89
2022/08/09 05:55:54;;;;;;;5.40;3.80;;;;;;;;;;5053955;28;20032;-89
2022/08/09 05:58:20;;;;;;;6.03;3.67;;;;;;;;;;5035493;28;20070;-88
2022/08/09 06:00:46;;;;;;;5.40;3.50;;;;;;;;;;5054423;28;20062;-88
2022/08/09 06:03:12;;;;;;;5.38;3.60;;;;;;;;;;5035674;28;20029;-88
2022/08/09 06:05:38;;;;;;;9.32;3.38;;;;;;;;;;5037562;28;20470;-88
2022/08/09 06:08:04;;;;;;;5.63;3.10;;;;;;;;;;5036234;28;20029;-88
2022/08/09 06:10:39;;;;;;;5.75;3.83;;;;;;;;;;5035774;28;20021;-88
2022/08/09 06:13:10;;;;;;;4.38;2.83;;;;;;;;;;5038589;28;20402;-90
2022/08/09 06:15:36;;;;;;;6.85;4.07;;;;;;;;;;5038523;28;20022;-88
2022/08/09 06:18:02;;;;;;;6.38;3.88;;;;;;;;;;5057323;28;20109;-88
2022/08/09 06:20:29;;;;;;;6.68;3.55;;;;;;;;;;5039155;28;20025;-89
2022/08/09 06:22:55;;;;;;;5.68;3.13;;;;;;;;;;5039677;28;20119;-88
2022/08/09 06:25:21;;;;;;;5.90;3.53;;;;;;;;;;5040845;28;20029;-88
2022/08/09 06:27:47;;;;;;;5.03;3.28;;;;;;;;;;5039391;28;20089;-89
2022/08/09 06:30:13;;;;;;;5.63;3.30;;;;;;;;;;5038314;28;20021;-89
2022/08/09 06:32:39;;;;;;;6.28;3.38;;;;;;;;;;5040473;28;20471;-89
2022/08/09 06:35:06;;;;;;;7.25;3.63;;;;;;;;;;5040413;28;20089;-89
2022/08/09 06:37:32;;;;;;;5.63;3.80;;;;;;;;;;5040887;28;20032;-89
2022/08/09 06:39:59;;;;;;;4.65;3.10;;;;;;;;;;5038207;28;20521;-89
2022/08/09 06:42:28;;;;;;;9.55;4.43;;;;;;;;;;5038748;28;20025;-89
2022/08/09 06:44:55;;;;;;;5.63;3.30;;;;;;;;;;5036920;28;20052;-88
2022/08/09 06:47:24;;;;;;;5.90;3.50;;;;;;;;;;5037452;28;20024;-89
2022/08/09 06:49:50;;;;;;;5.40;3.40;;;;;;;;;;5038338;28;20025;-89
2022/08/09 06:52:18;;;;;;;5.32;3.70;;;;;;;;;;5038863;28;20022;-88
2022/08/09 06:54:47;;;;;;;7.10;3.42;;;;;;;;;;5037067;28;20031;-89
2022/08/09 06:57:13;;;;;;;6.10;3.63;;;;;;;;;;5038955;28;20026;-90
2022/08/09 06:59:40;;;;;;;6.45;3.70;;;;;;;;;;5037570;28;20033;-89
2022/08/09 07:02:06;;;;;;;5.05;3.30;;;;;;;;;;5037910;28;20103;-91
2022/08/09 07:04:32;;;;;;;4.93;2.67;;;;;;;;;;5036873;28;20033;-88
2022/08/09 07:06:59;;;;;;;6.80;4.18;;;;;;;;;;5039217;28;20081;-87
2022/08/09 07:09:25;;;;;;;5.72;3.58;;;;;;;;;;5040292;28;20040;-88
2022/08/09 07:11:51;;;;;;;6.18;3.30;;;;;;;;;;5036999;28;20026;-89
2022/08/09 07:14:17;;;;;;;5.30;3.13;;;;;;;;;;5037713;28;20083;-89
2022/08/09 07:16:46;;;;;;;4.82;3.20;;;;;;;;;;5040940;28;20541;-90
2022/08/09 07:19:12;;;;;;;4.80;3.22;;;;;;;;;;5039554;28;20033;-87
2022/08/09 07:21:39;;;;;;;6.47;3.40;;;;;;;;;;5039797;28;20025;-88
2022/08/09 07:24:05;;;;;;;5.93;3.20;;;;;;;;;;5040012;28;20057;-88
2022/08/09 07:26:31;;;;;;;5.63;3.35;;;;;;;;;;5040767;28;20483;-87
2022/08/09 07:28:57;;;;;;;4.90;3.08;;;;;;;;;;5038750;28;20029;-88
2022/08/09 07:31:23;;;;;;;6.00;3.13;;;;;;;;;;5040964;28;20072;-88
2022/08/09 07:33:49;;;;;;;8.02;3.20;;;;;;;;;;5043321;28;20033;-88
2022/08/09 07:36:16;;;;;;;6.32;3.40;;;;;;;;;;5039069;28;20026;-88
2022/08/09 07:38:42;;;;;;;6.60;3.33;;;;;;;;;;5040254;28;20684;-89
2022/08/09 07:41:08;;;;;;;5.32;3.55;;;;;;;;;;5041234;28;20083;-86
2022/08/09 07:43:34;;;;;;;6.53;3.17;;;;;;;;;;5040796;28;20024;-87
2022/08/09 07:46:00;;;;;;;4.90;3.30;;;;;;;;;;5039877;28;20087;-88
2022/08/09 07:48:27;;;;;;;6.75;3.22;;;;;;;;;;5042062;28;20025;-89
2022/08/09 07:50:53;;;;;;;6.55;3.25;;;;;;;;;;5043732;28;20025;-87
2022/08/09 07:53:19;;;;;;;7.63;3.38;;;;;;;;;;5048553;28;20111;-88
2022/08/09 07:55:45;;;;;;;6.07;3.47;;;;;;;;;;5043836;28;20017;-89
2022/08/09 07:58:11;;;;;;;7.53;3.55;;;;;;;;;;5037760;28;20428;-88
2022/08/09 08:00:37;;;;;;;6.97;3.33;;;;;;;;;;5056159;28;20491;-89
2022/08/09 08:03:03;;;;;;;5.13;3.10;;;;;;;;;;5038618;28;20071;-88
2022/08/09 08:05:29;;;;;;;5.85;3.35;;;;;;;;;;5057406;28;20028;-88
2022/08/09 08:07:56;;;;;;;4.40;2.45;;;;;;;;;;5040376;28;20117;-89
2022/08/09 08:10:22;;;;;;;4.93;3.30;;;;;;;;;;5040231;28;20051;-88
2022/08/09 08:12:48;;;;;;;5.55;2.80;;;;;;;;;;5059052;28;20023;-88
2022/08/09 08:15:16;;;;;;;6.68;3.08;;;;;;;;;;5058570;28;20076;-89
2022/08/09 08:17:42;;;;;;;5.68;3.03;;;;;;;;;;5040172;28;20029;-88
2022/08/09 08:20:09;;;;;;;4.72;2.65;;;;;;;;;;5043690;28;20033;-90
2022/08/09 08:22:35;;;;;;;5.78;3.00;;;;;;;;;;5041652;28;20031;-89
2022/08/09 08:25:01;;;;;;;5.18;2.78;;;;;;;;;;5038737;28;20111;-89
2022/08/09 08:27:27;;;;;;;4.95;3.03;;;;;;;;;;5038105;28;20061;-89
2022/08/09 08:29:54;;;;;;;4.95;2.90;;;;;;;;;;5054363;28;20024;-89
2022/08/09 08:32:21;;;;;;;4.82;2.92;;;;;;;;;;5037934;28;20029;-89
2022/08/09 08:34:47;;;;;;;5.13;2.90;;;;;;;;;;5055532;28;20021;-89
2022/08/09 08:37:13;;;;;;;5.35;2.70;;;;;;;;;;5036203;28;20124;-88
2022/08/09 08:39:39;;;;;;;4.75;2.42;;;;;;;;;;5033302;28;20053;-87
2022/08/09 08:42:05;;;;;;;4.82;2.80;;;;;;;;;;5050046;28;20025;-88
2022/08/09 08:44:35;;;;;;;6.18;3.10;;;;;;;;;;5044180;28;20026;-88
2022/08/09 08:47:02;;;;;;;5.20;2.63;;;;;;;;;;5013408;28;20030;-89
2022/08/09 08:49:32;;;;;;;6.45;3.22;;;;;;;;;;5014553;28;20025;-89
2022/08/09 08:51:58;;;;;;;6.38;3.50;;;;;;;;;;5015873;28;20026;-89
2022/08/09 08:54:24;;;;;;;6.00;3.10;;;;;;;;;;5019276;28;20017;-89
2022/08/09 08:56:51;;;;;;;6.32;3.13;;;;;;;;;;5036156;28;20128;-89
2022/08/09 08:59:17;;;;;;;10.88;3.85;;;;;;;;;;5035311;28;20034;-90
2022/08/09 09:01:43;;;;;;;5.45;3.35;;;;;;;;;;5032614;28;20049;-87
2022/08/09 09:04:13;;;;;;;5.43;3.10;;;;;;;;;;5038177;28;20045;-89
2022/08/09 09:06:42;;;;;;;8.05;3.67;;;;;;;;;;5032430;28;20034;-89
2022/08/09 09:09:12;;;;;;;9.13;3.40;;;;;;;;;;5031886;28;20083;-88
2022/08/09 09:11:40;;;;;;;5.25;3.45;;;;;;;;;;5034158;28;20391;-91
2022/08/09 09:14:12;;;;;;;5.63;3.05;;;;;;;;;;5031309;28;20037;-88
2022/08/09 09:16:38;;;;;;;7.50;3.30;;;;;;;;;;5012066;28;20369;-88
2022/08/09 09:19:07;;;;;;;7.20;3.45;;;;;;;;;;5011710;28;20049;-90
2022/08/09 09:21:33;;;;;;;6.25;3.13;;;;;;;;;;5012639;28;20026;-88
2022/08/09 09:24:06;;;;;;;5.93;3.05;;;;;;;;;;5013272;28;20052;-87
2022/08/09 09:26:36;;;;;;;4.65;2.70;;;;;;;;;;5012702;28;20034;-88
2022/08/09 09:29:02;;;;;;;5.47;2.90;;;;;;;;;;5012286;28;20026;-88
2022/08/09 09:31:28;;;;;;;6.32;3.00;;;;;;;;;;5024514;28;20021;-89
2022/08/09 09:34:10;;;;;;;5.28;3.00;;;;;;;;;;5031800;28;20099;-89
2022/08/09 09:36:42;;;;;;;6.03;3.05;;;;;;;;;;5033705;28;20036;-89
2022/08/09 09:39:09;;;;;;;4.72;2.72;;;;;;;;;;5029877;28;20053;-90
2022/08/09 09:41:35;;;;;;;5.90;2.83;;;;;;;;;;5037367;28;20056;-90
2022/08/09 09:44:03;;;;;;;5.65;2.83;;;;;;;;;;5037986;28;20037;-88
2022/08/09 09:46:36;;;;;;;6.28;2.80;;;;;;;;;;5035632;28;20112;-88
2022/08/09 09:49:06;;;;;;;6.13;3.38;;;;;;;;;;5037560;28;20025;-87
2022/08/09 09:51:33;;;;;;;5.45;3.00;;;;;;;;;;5056207;28;20021;-83
2022/08/09 09:54:13;;;;;;;6.43;2.85;;;;;;;;;;5039161;28;20048;-87
2022/08/09 09:56:43;;;;;;;6.20;3.03;;;;;;;;;;5060203;28;20021;-88
2022/08/09 09:59:13;;;;;;;5.75;2.60;;;;;;;;;;5036160;28;20103;-90
2022/08/09 10:01:41;;;;;;;7.85;2.80;;;;;;;;;;5039677;28;20054;-88
2022/08/09 10:04:14;;;;;;;7.32;2.88;;;;;;;;;;5040323;28;20087;-89
2022/08/09 10:06:42;;;;;;;5.70;2.70;;;;;;;;;;5061093;28;20021;-88
2022/08/09 10:09:09;;;;;;;4.63;2.80;;;;;;;;;;5025021;28;20033;-87
2022/08/09 10:11:35;;;;;;;5.95;2.63;;;;;;;;;;5063460;28;20032;-87
2022/08/09 10:14:01;;;;;;;4.53;2.65;;;;;;;;;;5046756;28;20070;-87
2022/08/09 10:16:27;;;;;;;6.70;2.75;;;;;;;;;;5048321;28;20013;-87
2022/08/09 10:18:54;;;;;;;4.80;2.60;;;;;;;;;;5046204;28;20025;-87
2022/08/09 10:21:22;;;;;;;8.35;2.80;;;;;;;;;;5063580;28;20024;-87
2022/08/09 10:23:49;;;;;;;5.40;2.85;;;;;;;;;;5043282;28;20021;-88
2022/08/09 10:26:15;;;;;;;7.60;2.80;;;;;;;;;;5043632;28;20074;-87
2022/08/09 10:28:42;;;;;;;6.75;3.10;;;;;;;;;;5041397;28;20120;-88
2022/08/09 10:31:09;;;;;;;4.32;2.70;;;;;;;;;;5037653;28;20479;-89
2022/08/09 10:33:35;;;;;;;6.85;2.95;;;;;;;;;;5039697;28;20633;-86
2022/08/09 10:36:02;;;;;;;4.82;2.53;;;;;;;;;;5045583;28;20085;-89
2022/08/09 10:38:28;;;;;;;6.00;3.00;;;;;;;;;;5040467;28;20097;-85
2022/08/09 10:40:54;;;;;;;5.07;2.85;;;;;;;;;;5049222;28;20038;-88
2022/08/09 10:43:20;;;;;;;6.40;2.55;;;;;;;;;;5038966;28;20025;-87
2022/08/09 10:45:47;;;;;;;5.32;2.55;;;;;;;;;;5066018;28;20691;-88
2022/08/09 10:48:27;;;;;;;6.28;2.53;;;;;;;;;;5042609;28;20029;-88
2022/08/09 10:51:08;;;;;;;4.20;2.50;;;;;;;;;;5057252;28;20540;-89
2022/08/09 10:53:53;;;;;;;5.43;2.92;;;;;;;;;;5045726;28;20036;-87
2022/08/09 10:56:19;;;;;;;5.97;2.60;;;;;;;;;;5043925;28;20021;-88
2022/08/09 10:58:45;;;;;;;5.75;2.55;;;;;;;;;;5044233;28;20021;-87
2022/08/09 11:01:30;;;;;;;7.65;2.85;;;;;;;;;;5028951;28;20037;-88
2022/08/09 11:04:25;;;;;;;5.05;2.45;;;;;;;;;;5041405;28;20045;-88
2022/08/09 11:06:57;;;;;;;5.28;2.15;;;;;;;;;;5013787;28;20048;-88
2022/08/09 11:09:43;;;;;;;8.75;2.65;;;;;;;;;;5040887;28;20036;-86
2022/08/09 11:12:19;;;;;;;7.00;2.80;;;;;;;;;;5009479;28;20053;-89
2022/08/09 11:14:56;;;;;;;6.60;2.33;;;;;;;;;;5056905;28;20475;-87
2022/08/09 11:17:23;;;;;;;6.57;3.28;;;;;;;;;;5039020;28;20108;-87
2022/08/09 11:19:55;;;;;;;7.55;2.17;;;;;;;;;;5039395;28;20122;-86
2022/08/09 11:22:22;;;;;;;5.70;2.60;;;;;;;;;;5040846;28;20033;-86
2022/08/09 11:24:57;;;;;;;11.52;2.72;;;;;;;;;;5039317;28;20403;-88
2022/08/09 11:27:35;;;;;;;4.72;2.22;;;;;;;;;;5060054;28;20032;-89
2022/08/09 11:30:01;;;;;;;5.78;2.25;;;;;;;;;;5037185;28;20025;-90
2022/08/09 11:32:48;;;;;;;5.50;2.30;;;;;;;;;;5048283;28;20028;-89
2022/08/09 11:35:32;;;;;;;5.60;2.10;;;;;;;;;;5041351;28;20047;-88
2022/08/09 11:38:13;;;;;;;4.10;2.20;;;;;;;;;;5045224;28;20031;-88
2022/08/09 11:40:39;;;;;;;4.63;2.17;;;;;;;;;;5041585;28;20053;-88
2022/08/09 11:43:06;;;;;;;6.07;2.53;;;;;;;;;;5040466;28;20021;-88
2022/08/09 11:45:43;;;;;;;6.68;2.22;;;;;;;;;;5039720;28;20025;-88
2022/08/09 11:48:12;;;;;;;5.15;1.95;;;;;;;;;;5056736;28;20033;-88
2022/08/09 11:50:56;;;;;;;6.78;2.40;;;;;;;;;;5039594;28;20024;-89
2022/08/09 11:53:32;;;;;;;5.68;2.20;;;;;;;;;;5057633;28;20074;-89
2022/08/09 11:55:59;;;;;;;4.03;1.67;;;;;;;;;;5040196;28;20029;-88
2022/08/09 11:58:27;;;;;;;5.07;2.10;;;;;;;;;;5041099;28;20025;-90
2022/08/09 12:00:55;;;;;;;3.70;2.00;;;;;;;;;;5057261;28;20507;-88
2022/08/09 12:03:23;;;;;;;4.65;2.42;;;;;;;;;;5038885;28;20036;-88
2022/08/09 12:05:50;;;;;;;5.97;2.35;;;;;;;;;;5021059;28;20037;-88
2022/08/09 12:08:17;;;;;;;4.53;2.20;;;;;;;;;;5036655;28;20021;-88
2022/08/09 12:10:44;;;;;;;4.78;2.05;;;;;;;;;;5037720;28;20021;-87
2022/08/09 12:13:10;;;;;;;4.30;2.00;;;;;;;;;;5040684;28;20025;-88
2022/08/09 12:15:36;;;;;;;4.47;1.95;;;;;;;;;;5047692;28;20026;-88
2022/08/09 12:18:02;;;;;;;4.65;1.95;;;;;;;;;;5041895;28;20032;-89
2022/08/09 12:20:33;;;;;;;4.78;2.20;;;;;;;;;;5040900;28;20025;-89
2022/08/09 12:23:00;;;;;;;5.35;2.00;;;;;;;;;;5040125;28;20173;-89
2022/08/09 12:25:27;;;;;;;4.65;2.00;;;;;;;;;;5042734;28;20574;-87
2022/08/09 12:28:10;;;;;;;4.00;2.17;;;;;;;;;;5044768;28;20025;-87
2022/08/09 12:30:36;;;;;;;3.90;1.90;;;;;;;;;;5040375;28;20492;-87
2022/08/09 12:33:03;;;;;;;3.80;2.05;;;;;;;;;;5066072;28;20086;-89
2022/08/09 12:35:29;;;;;;;6.75;2.22;;;;;;;;;;5045202;28;20443;-87
2022/08/09 12:37:55;;;;;;;4.55;2.20;;;;;;;;;;5049068;28;20025;-88
2022/08/09 12:40:26;;;;;;;8.52;2.40;;;;;;;;;;5065190;28;20107;-89
2022/08/09 12:42:52;;;;;;;5.20;2.00;;;;;;;;;;5047762;28;20021;-88
2022/08/09 12:45:19;;;;;;;3.88;1.88;;;;;;;;;;5064303;28;20025;-87
2022/08/09 12:47:46;;;;;;;4.57;1.95;;;;;;;;;;5061404;28;20021;-89
2022/08/09 12:50:18;;;;;;;6.03;1.85;;;;;;;;;;5041045;28;20020;-85
2022/08/09 12:52:45;;;;;;;3.78;1.60;;;;;;;;;;5041062;28;20021;-88
2022/08/09 12:55:22;;;;;;;3.88;1.50;;;;;;;;;;5055795;28;20048;-88
2022/08/09 12:57:48;;;;;;;4.75;1.95;;;;;;;;;;5038424;28;20017;-88
2022/08/09 13:00:20;;;;;;;3.28;1.48;;;;;;;;;;5058345;28;20028;-87
2022/08/09 13:02:50;;;;;;;4.10;1.83;;;;;;;;;;5039616;28;20021;-86
2022/08/09 13:05:17;;;;;;;4.07;1.63;;;;;;;;;;5038127;28;20268;-87
2022/08/09 13:08:03;;;;;;;3.80;1.75;;;;;;;;;;5055111;28;20505;-89
2022/08/09 13:10:29;;;;;;;3.50;1.70;;;;;;;;;;5017440;28;20025;-87
2022/08/09 13:12:59;;;;;;;3.83;1.95;;;;;;;;;;5019186;28;20028;-90
2022/08/09 13:15:25;;;;;;;4.60;1.88;;;;;;;;;;5041575;28;20022;-87
2022/08/09 13:17:51;;;;;;;4.68;1.92;;;;;;;;;;5037074;28;20029;-88
2022/08/09 13:20:30;;;;;;;4.15;1.98;;;;;;;;;;5040315;28;20131;-88
2022/08/09 13:23:00;;;;;;;4.38;1.50;;;;;;;;;;5041317;28;20060;-87
2022/08/09 13:25:36;;;;;;;4.03;1.80;;;;;;;;;;5043629;28;20116;-86
2022/08/09 13:28:14;;;;;;;4.63;1.80;;;;;;;;;;5045633;28;20087;-87
2022/08/09 13:30:40;;;;;;;5.10;1.75;;;;;;;;;;5063478;28;20013;-87
2022/08/09 13:33:07;;;;;;;3.70;1.60;;;;;;;;;;5063091;28;20013;-86
2022/08/09 13:35:33;;;;;;;4.18;1.65;;;;;;;;;;5041800;28;20032;-90
2022/08/09 13:37:59;;;;;;;3.78;1.60;;;;;;;;;;5038608;28;20021;-87
2022/08/09 13:40:26;;;;;;;5.50;1.77;;;;;;;;;;5038648;28;20519;-87
2022/08/09 13:42:52;;;;;;;5.78;1.70;;;;;;;;;;5040722;28;20029;-87
2022/08/09 13:45:19;;;;;;;3.88;1.55;;;;;;;;;;5059488;28;20029;-86
2022/08/09 13:47:45;;;;;;;3.70;1.80;;;;;;;;;;5044055;28;20152;-89
2022/08/09 13:50:15;;;;;;;4.03;1.60;;;;;;;;;;5060727;28;20454;-87
2022/08/09 13:52:42;;;;;;;3.90;1.60;;;;;;;;;;5043620;28;20017;-86
2022/08/09 13:55:09;;;;;;;6.55;1.73;;;;;;;;;;5041104;28;20071;-87
2022/08/09 13:57:36;;;;;;;6.50;1.80;;;;;;;;;;5040306;28;20025;-86
2022/08/09 14:00:04;;;;;;;5.13;1.80;;;;;;;;;;5040318;28;20040;-87
2022/08/09 14:02:30;;;;;;;3.88;1.60;;;;;;;;;;5059197;28;20029;-88
2022/08/09 14:04:56;;;;;;;4.13;1.50;;;;;;;;;;5040729;28;20033;-85
2022/08/09 14:07:22;;;;;;;3.72;1.70;;;;;;;;;;5040252;28;20075;-87
2022/08/09 14:09:50;;;;;;;3.30;1.58;;;;;;;;;;5058678;28;20025;-87
2022/08/09 14:12:16;;;;;;;4.40;1.95;;;;;;;;;;5041800;28;20029;-85
2022/08/09 14:14:42;;;;;;;5.45;2.00;;;;;;;;;;5041952;28;20048;-89
2022/08/09 14:17:08;;;;;;;4.47;1.60;;;;;;;;;;5038636;28;20017;-86
2022/08/09 14:19:35;;;;;;;4.05;1.88;;;;;;;;;;5040824;28;20052;-88
2022/08/09 14:22:02;;;;;;;4.80;2.00;;;;;;;;;;5040637;28;20372;-90
2022/08/09 14:24:28;;;;;;;4.18;1.80;;;;;;;;;;5042761;28;20025;-88
2022/08/09 14:26:54;;;;;;;3.85;1.83;;;;;;;;;;5041143;28;20029;-87
2022/08/09 14:29:22;;;;;;;4.32;1.70;;;;;;;;;;5041427;28;20035;-87
2022/08/09 14:31:48;;;;;;;5.85;2.00;;;;;;;;;;5039883;28;20017;-90
2022/08/09 14:34:14;;;;;;;3.60;1.60;;;;;;;;;;5056848;28;20428;-88
2022/08/09 14:36:41;;;;;;;5.30;1.67;;;;;;;;;;5059949;28;20047;-89
2022/08/09 14:39:07;;;;;;;3.65;1.70;;;;;;;;;;5039368;28;20100;-86
2022/08/09 14:41:33;;;;;;;4.65;1.70;;;;;;;;;;5058209;28;20032;-87
2022/08/09 14:43:59;;;;;;;3.78;1.80;;;;;;;;;;5039532;28;20027;-88
2022/08/09 14:46:25;;;;;;;4.90;1.65;;;;;;;;;;5057843;28;20033;-87
2022/08/09 14:48:51;;;;;;;4.18;1.67;;;;;;;;;;5037139;28;20095;-87